createdAt,value
2023-03-11T00:01:44.299Z,2.20
2023-03-11T00:04:11.037Z,2.20
2023-03-11T00:06:37.835Z,2.20
2023-03-11T00:09:05.135Z,2.20
2023-03-11T00:11:31.893Z,2.20
2023-03-11T00:13:58.617Z,2.20
2023-03-11T00:16:25.296Z,2.10
2023-03-11T00:18:52.715Z,2.10
2023-03-11T00:21:20.237Z,2.10
2023-03-11T00:23:47.760Z,2.20
2023-03-11T00:26:14.761Z,2.40
2023-03-11T00:28:41.395Z,2.20
2023-03-11T00:31:08.011Z,2.20
2023-03-11T00:33:34.638Z,2.30
2023-03-11T00:36:01.364Z,2.30
2023-03-11T00:38:28.072Z,2.20
2023-03-11T00:40:54.697Z,2.30
2023-03-11T00:43:21.285Z,2.40
2023-03-11T00:45:48.081Z,2.40
2023-03-11T00:48:15.225Z,2.30
2023-03-11T00:50:42.540Z,2.40
2023-03-11T00:53:10.569Z,2.40
2023-03-11T00:55:37.204Z,2.40
2023-03-11T00:58:06.384Z,2.40
2023-03-11T01:00:33.402Z,2.40
2023-03-11T01:03:00.499Z,2.30
2023-03-11T01:05:30.712Z,2.30
2023-03-11T01:07:57.766Z,2.20
2023-03-11T01:10:24.688Z,2.30
2023-03-11T01:12:51.285Z,2.40
2023-03-11T01:15:33.262Z,2.40
2023-03-11T01:18:00.651Z,2.40
2023-03-11T01:20:27.322Z,2.40
2023-03-11T01:22:53.997Z,2.40
2023-03-11T01:25:22.328Z,2.30
2023-03-11T01:27:49.889Z,2.30
2023-03-11T01:30:21.035Z,2.30
2023-03-11T01:32:47.924Z,2.20
2023-03-11T01:35:17.645Z,2.30
2023-03-11T01:37:44.550Z,2.30
2023-03-11T01:40:19.763Z,2.20
2023-03-11T01:42:46.573Z,2.30
2023-03-11T01:45:32.880Z,2.30
2023-03-11T01:47:59.506Z,2.10
2023-03-11T01:50:31.328Z,2.20
2023-03-11T01:52:58.005Z,2.20
2023-03-11T01:55:24.674Z,2.30
2023-03-11T01:57:52.437Z,2.20
2023-03-11T02:00:19.418Z,2.20
2023-03-11T02:02:51.655Z,2.20
2023-03-11T02:05:20.970Z,2.20
2023-03-11T02:07:48.791Z,2.10
2023-03-11T02:10:15.640Z,2.20
2023-03-11T02:12:43.074Z,2.20
2023-03-11T02:15:11.221Z,2.20
2023-03-11T02:17:41.349Z,2.20
2023-03-11T02:20:44.085Z,2.10
2023-03-11T02:23:13.723Z,1.90
2023-03-11T02:25:56.103Z,1.80
2023-03-11T02:28:23.980Z,1.80
2023-03-11T02:30:50.767Z,1.70
2023-03-11T02:33:19.294Z,1.80
2023-03-11T02:35:46.116Z,1.80
2023-03-11T02:38:13.974Z,1.80
2023-03-11T02:40:56.781Z,1.80
2023-03-11T02:43:44.999Z,1.90
2023-03-11T02:46:12.393Z,1.90
2023-03-11T02:48:39.298Z,1.80
2023-03-11T02:51:05.930Z,1.80
2023-03-11T02:53:38.504Z,1.80
2023-03-11T02:56:05.323Z,1.70
2023-03-11T02:58:32.013Z,1.70
2023-03-11T03:00:58.665Z,1.80
2023-03-11T03:03:25.426Z,1.80
2023-03-11T03:05:52.092Z,1.80
2023-03-11T03:08:18.741Z,1.60
2023-03-11T03:10:45.537Z,1.70
2023-03-11T03:13:12.323Z,1.70
2023-03-11T03:15:39.129Z,1.70
2023-03-11T03:18:06.047Z,1.60
2023-03-11T03:20:32.884Z,1.70
2023-03-11T03:22:59.502Z,1.70
2023-03-11T03:25:26.164Z,1.60
2023-03-11T03:27:52.769Z,1.80
2023-03-11T03:30:19.889Z,1.70
2023-03-11T03:32:46.591Z,1.60
2023-03-11T03:35:13.279Z,1.60
2023-03-11T03:37:40.062Z,1.80
2023-03-11T03:40:08.297Z,1.60
2023-03-11T03:42:36.865Z,1.60
2023-03-11T03:45:05.419Z,1.60
2023-03-11T03:47:33.672Z,1.60
2023-03-11T03:50:00.758Z,1.60
2023-03-11T03:52:27.434Z,1.70
2023-03-11T03:54:54.093Z,1.70
2023-03-11T03:57:20.837Z,1.70
2023-03-11T03:59:47.438Z,1.60
2023-03-11T04:02:14.102Z,1.70
2023-03-11T04:04:40.728Z,1.60
2023-03-11T04:07:07.559Z,1.80
2023-03-11T04:09:34.165Z,1.70
2023-03-11T04:12:00.781Z,1.70
2023-03-11T04:14:27.407Z,1.70
2023-03-11T04:16:54.238Z,1.80
2023-03-11T04:19:20.958Z,1.70
2023-03-11T04:21:47.604Z,1.70
2023-03-11T04:24:14.292Z,1.80
2023-03-11T04:26:40.943Z,1.90
2023-03-11T04:29:07.629Z,1.80
2023-03-11T04:31:34.255Z,1.80
2023-03-11T04:34:01.030Z,1.80
2023-03-11T04:36:27.826Z,1.70
2023-03-11T04:38:56.665Z,1.80
2023-03-11T04:41:23.815Z,1.70
2023-03-11T04:43:50.397Z,1.70
2023-03-11T04:46:17.025Z,1.70
2023-03-11T04:48:43.740Z,1.70
2023-03-11T04:51:10.579Z,1.70
2023-03-11T04:53:37.175Z,1.50
2023-03-11T04:56:03.888Z,1.70
2023-03-11T04:58:30.570Z,1.50
2023-03-11T05:00:57.227Z,1.50
2023-03-11T05:03:24.264Z,1.40
2023-03-11T05:05:52.856Z,1.30
2023-03-11T05:08:19.492Z,1.30
2023-03-11T05:10:46.866Z,1.30
2023-03-11T05:13:13.499Z,1.30
2023-03-11T05:15:40.276Z,3.20
2023-03-11T05:18:07.054Z,1.10
2023-03-11T05:20:33.765Z,1.10
2023-03-11T05:23:00.586Z,1.00
2023-03-11T05:25:27.449Z,0.90
2023-03-11T05:27:54.060Z,1.00
2023-03-11T05:30:20.699Z,1.00
2023-03-11T05:32:47.441Z,1.00
2023-03-11T05:35:14.199Z,1.00
2023-03-11T05:37:41.175Z,1.10
2023-03-11T05:40:10.269Z,1.10
2023-03-11T05:42:36.930Z,1.00
2023-03-11T05:45:03.892Z,1.10
2023-03-11T05:47:30.533Z,1.00
2023-03-11T05:49:57.216Z,0.80
2023-03-11T05:52:23.937Z,0.70
2023-03-11T05:54:51.833Z,0.70
2023-03-11T05:57:19.700Z,0.60
2023-03-11T05:59:46.587Z,0.60
2023-03-11T06:02:13.232Z,0.70
2023-03-11T06:04:39.986Z,0.60
2023-03-11T06:07:06.670Z,0.60
2023-03-11T06:09:36.838Z,0.70
2023-03-11T06:12:04.793Z,0.70
2023-03-11T06:14:32.607Z,0.70
2023-03-11T06:16:59.307Z,0.80
2023-03-11T06:19:26.218Z,0.70
2023-03-11T06:21:52.874Z,0.70
2023-03-11T06:24:19.507Z,0.80
2023-03-11T06:26:46.783Z,0.90
2023-03-11T06:29:14.741Z,1.00
2023-03-11T06:31:41.680Z,1.00
2023-03-11T06:34:10.175Z,1.00
2023-03-11T06:36:37.411Z,1.00
2023-03-11T06:39:04.566Z,1.10
2023-03-11T06:41:33.872Z,1.20
2023-03-11T06:44:00.606Z,1.20
2023-03-11T06:46:27.236Z,1.10
2023-03-11T06:48:54.699Z,1.10
2023-03-11T06:51:21.821Z,1.00
2023-03-11T06:53:52.862Z,1.00
2023-03-11T06:56:21.160Z,0.90
2023-03-11T06:58:48.112Z,0.90
2023-03-11T07:01:20.355Z,0.90
2023-03-11T07:03:49.021Z,1.00
2023-03-11T07:06:18.340Z,1.30
2023-03-11T07:08:50.037Z,1.10
2023-03-11T07:11:25.141Z,1.10
2023-03-11T07:13:52.845Z,1.30
2023-03-11T07:16:24.886Z,1.30
2023-03-11T07:18:52.983Z,1.20
2023-03-11T07:21:22.013Z,1.40
2023-03-11T07:23:52.309Z,1.10
2023-03-11T07:26:19.075Z,1.20
2023-03-11T07:28:45.820Z,1.30
2023-03-11T07:31:16.230Z,1.30
2023-03-11T07:33:43.467Z,1.40
2023-03-11T07:36:12.859Z,1.40
2023-03-11T07:38:41.681Z,1.50
2023-03-11T07:41:11.099Z,1.60
2023-03-11T07:43:38.910Z,1.70
2023-03-11T07:46:16.465Z,1.80
2023-03-11T07:48:43.212Z,1.70
2023-03-11T07:51:13.902Z,1.80
2023-03-11T07:53:40.787Z,1.70
2023-03-11T07:56:08.640Z,1.80
2023-03-11T07:58:35.520Z,2.00
2023-03-11T08:01:10.782Z,2.40
2023-03-11T08:03:38.673Z,2.60
2023-03-11T08:06:16.531Z,2.50
2023-03-11T08:08:43.399Z,2.30
2023-03-11T08:11:13.029Z,2.20
2023-03-11T08:13:41.141Z,2.20
2023-03-11T08:16:09.624Z,1.90
2023-03-11T08:18:36.277Z,2.20
2023-03-11T08:21:07.594Z,2.00
2023-03-11T08:23:35.147Z,1.60
2023-03-11T08:26:06.980Z,2.10
2023-03-11T08:28:33.950Z,2.00
2023-03-11T08:31:01.009Z,2.00
2023-03-11T08:33:28.166Z,2.00
2023-03-11T08:35:55.136Z,2.10
2023-03-11T08:38:21.933Z,2.20
2023-03-11T08:40:48.602Z,2.20
2023-03-11T08:43:15.658Z,3.40
2023-03-11T08:45:43.221Z,2.40
2023-03-11T08:48:11.766Z,2.60
2023-03-11T08:50:53.294Z,2.60
2023-03-11T08:53:20.388Z,2.60
2023-03-11T08:55:47.069Z,2.80
2023-03-11T08:58:13.687Z,5.40
2023-03-11T09:00:40.297Z,2.80
2023-03-11T09:03:06.960Z,1.90
2023-03-11T09:05:33.713Z,2.90
2023-03-11T09:08:00.567Z,3.00
2023-03-11T09:10:27.211Z,3.00
2023-03-11T09:12:53.873Z,2.80
2023-03-11T09:15:20.596Z,2.90
2023-03-11T09:17:47.521Z,2.80
2023-03-11T09:20:15.121Z,2.90
2023-03-11T09:22:41.877Z,2.80
2023-03-11T09:25:10.404Z,2.90
2023-03-11T09:27:37.021Z,3.10
2023-03-11T09:30:03.949Z,3.10
2023-03-11T09:32:30.593Z,3.20
2023-03-11T09:34:57.772Z,3.10
2023-03-11T09:37:24.417Z,3.00
2023-03-11T09:39:51.038Z,3.00
2023-03-11T09:42:26.459Z,2.90
2023-03-11T09:45:05.220Z,2.80
2023-03-11T09:47:49.948Z,2.90
2023-03-11T09:50:48.740Z,3.00
2023-03-11T09:53:36.236Z,2.90
2023-03-11T09:56:06.728Z,3.00
2023-03-11T09:58:55.343Z,3.10
2023-03-11T10:01:27.693Z,3.10
2023-03-11T10:04:02.413Z,3.30
2023-03-11T10:06:30.736Z,3.40
2023-03-11T10:09:22.397Z,3.60
2023-03-11T10:11:51.721Z,3.80
2023-03-11T10:14:35.636Z,3.70
2023-03-11T10:17:28.233Z,3.70
2023-03-11T10:20:07.267Z,3.70
2023-03-11T10:23:08.468Z,3.70
2023-03-11T10:25:57.511Z,3.90
2023-03-11T10:28:31.834Z,3.90
2023-03-11T10:31:21.620Z,3.90
2023-03-11T10:34:00.199Z,3.80
2023-03-11T10:36:38.217Z,3.80
2023-03-11T10:39:06.319Z,3.70
2023-03-11T10:41:49.467Z,3.90
2023-03-11T10:44:23.879Z,4.00
2023-03-11T10:46:50.502Z,4.20
2023-03-11T10:49:18.306Z,4.10
2023-03-11T10:51:50.624Z,4.10
2023-03-11T10:54:34.800Z,4.20
2023-03-11T10:57:04.223Z,4.10
2023-03-11T10:59:46.134Z,4.20
2023-03-11T11:02:26.058Z,4.30
2023-03-11T11:05:27.423Z,4.30
2023-03-11T11:08:11.971Z,4.30
2023-03-11T11:11:11.624Z,4.40
2023-03-11T11:13:38.257Z,4.40
2023-03-11T11:16:18.914Z,4.50
2023-03-11T11:18:49.615Z,2.60
2023-03-11T11:21:28.662Z,4.60
2023-03-11T11:24:10.570Z,4.60
2023-03-11T11:26:37.208Z,4.70
2023-03-11T11:29:09.955Z,4.80
2023-03-11T11:31:42.000Z,5.00
2023-03-11T11:34:30.136Z,2.30
2023-03-11T11:36:59.725Z,4.90
2023-03-11T11:39:29.144Z,4.90
2023-03-11T11:41:56.701Z,4.90
2023-03-11T11:44:34.348Z,4.90
2023-03-11T11:47:13.993Z,5.00
2023-03-11T11:49:51.929Z,5.20
2023-03-11T11:52:26.144Z,5.20
2023-03-11T11:55:13.159Z,5.30
2023-03-11T11:57:40.341Z,5.30
2023-03-11T12:00:25.794Z,5.40
2023-03-11T12:03:05.680Z,5.40
2023-03-11T12:05:35.912Z,3.50
2023-03-11T12:08:17.262Z,5.50
2023-03-11T12:11:07.025Z,5.40
2023-03-11T12:13:47.911Z,5.50
2023-03-11T12:16:31.402Z,5.40
2023-03-11T12:19:10.607Z,5.50
2023-03-11T12:21:55.889Z,5.70
2023-03-11T12:24:32.796Z,5.90
2023-03-11T12:27:05.425Z,5.90
2023-03-11T12:29:42.211Z,5.90
2023-03-11T12:32:22.736Z,5.90
2023-03-11T12:34:49.378Z,5.90
2023-03-11T12:37:21.221Z,5.70
2023-03-11T12:39:47.877Z,5.70
2023-03-11T12:42:17.303Z,5.60
2023-03-11T12:44:45.398Z,5.50
2023-03-11T12:47:19.469Z,5.60
2023-03-11T12:49:54.994Z,5.80
2023-03-11T12:52:23.068Z,5.90
2023-03-11T12:55:18.840Z,5.90
2023-03-11T12:57:58.133Z,5.80
2023-03-11T13:00:36.983Z,7.70
2023-03-11T13:03:16.687Z,6.00
2023-03-11T13:06:20.337Z,5.80
2023-03-11T13:08:55.761Z,5.90
2023-03-11T13:11:34.225Z,6.00
2023-03-11T13:14:23.515Z,5.70
2023-03-11T13:16:50.469Z,5.60
2023-03-11T13:19:37.206Z,5.70
2023-03-11T13:22:05.752Z,5.80
2023-03-11T13:24:32.352Z,6.00
2023-03-11T13:26:59.234Z,5.90
2023-03-11T13:29:47.610Z,5.90
2023-03-11T13:32:35.783Z,6.10
2023-03-11T13:35:23.904Z,6.30
2023-03-11T13:38:20.296Z,6.30
2023-03-11T13:40:47.064Z,6.20
2023-03-11T13:43:16.372Z,6.20
2023-03-11T13:46:06.062Z,6.20
2023-03-11T13:48:45.765Z,6.30
2023-03-11T13:51:17.510Z,7.90
2023-03-11T13:53:48.348Z,6.20
2023-03-11T13:56:24.537Z,6.30
2023-03-11T13:58:51.120Z,6.60
2023-03-11T14:01:19.108Z,6.50
2023-03-11T14:03:47.655Z,6.40
2023-03-11T14:06:20.681Z,6.60
2023-03-11T14:08:58.397Z,6.40
2023-03-11T14:11:31.788Z,6.50
2023-03-11T14:13:58.555Z,6.40
2023-03-11T14:16:33.402Z,6.30
2023-03-11T14:19:04.792Z,6.40
2023-03-11T14:21:34.350Z,7.50
2023-03-11T14:24:03.008Z,6.90
2023-03-11T14:26:35.327Z,6.70
2023-03-11T14:29:09.560Z,6.70
2023-03-11T14:31:40.235Z,6.90
2023-03-11T14:34:09.962Z,6.70
2023-03-11T14:36:54.045Z,6.90
2023-03-11T14:39:38.893Z,10.40
2023-03-11T14:42:36.631Z,10.40
2023-03-11T14:45:18.110Z,10.70
2023-03-11T14:47:59.570Z,10.80
2023-03-11T14:50:28.958Z,8.80
2023-03-11T14:53:27.831Z,7.50
2023-03-11T14:56:12.447Z,7.00
2023-03-11T14:59:01.625Z,6.60
2023-03-11T15:01:41.609Z,6.50
2023-03-11T15:04:22.844Z,6.40
2023-03-11T15:06:50.534Z,6.40
2023-03-11T15:09:19.920Z,8.90
2023-03-11T15:11:57.632Z,6.30
2023-03-11T15:14:25.624Z,6.20
2023-03-11T15:16:53.437Z,6.30
2023-03-11T15:19:28.692Z,6.30
2023-03-11T15:22:01.198Z,4.90
2023-03-11T15:24:31.355Z,6.40
2023-03-11T15:27:04.763Z,6.20
2023-03-11T15:29:33.460Z,7.50
2023-03-11T15:32:00.463Z,6.20
2023-03-11T15:34:32.507Z,6.20
2023-03-11T15:37:20.579Z,6.10
2023-03-11T15:39:52.086Z,6.10
2023-03-11T15:42:26.415Z,6.20
2023-03-11T15:45:18.772Z,6.20
2023-03-11T15:47:47.294Z,6.20
2023-03-11T15:50:37.289Z,6.20
2023-03-11T15:53:09.890Z,6.20
2023-03-11T15:55:37.349Z,6.10
2023-03-11T15:58:08.065Z,6.10
2023-03-11T16:00:36.614Z,5.80
2023-03-11T16:03:04.563Z,5.00
2023-03-11T16:05:31.270Z,4.70
2023-03-11T16:07:57.890Z,5.40
2023-03-11T16:10:25.737Z,4.20
2023-03-11T16:12:52.420Z,4.10
2023-03-11T16:15:24.695Z,4.10
2023-03-11T16:17:52.850Z,4.20
2023-03-11T16:20:21.483Z,4.20
2023-03-11T16:22:49.919Z,4.40
2023-03-11T16:25:27.513Z,4.40
2023-03-11T16:27:56.052Z,4.50
2023-03-11T16:30:24.575Z,4.50
2023-03-11T16:32:51.276Z,6.60
2023-03-11T16:35:18.627Z,4.60
2023-03-11T16:37:45.445Z,4.60
2023-03-11T16:40:18.442Z,4.60
2023-03-11T16:42:45.605Z,4.70
2023-03-11T16:45:13.727Z,4.70
2023-03-11T16:47:40.518Z,4.60
2023-03-11T16:50:08.234Z,4.70
2023-03-11T16:52:35.025Z,4.50
2023-03-11T16:55:01.831Z,4.50
2023-03-11T16:57:28.944Z,4.30
2023-03-11T16:59:55.648Z,4.30
2023-03-11T17:02:24.514Z,4.30
2023-03-11T17:04:51.335Z,4.20
2023-03-11T17:07:18.098Z,4.20
2023-03-11T17:09:44.701Z,4.10
2023-03-11T17:12:13.398Z,4.10
2023-03-11T17:14:40.138Z,4.00
2023-03-11T17:17:07.646Z,4.00
2023-03-11T17:19:34.376Z,4.00
2023-03-11T17:22:01.050Z,4.10
2023-03-11T17:24:28.066Z,3.90
2023-03-11T17:26:54.720Z,3.50
2023-03-11T17:29:21.359Z,6.40
2023-03-11T17:31:48.102Z,4.00
2023-03-11T17:34:14.799Z,3.80
2023-03-11T17:36:41.405Z,3.70
2023-03-11T17:39:08.330Z,3.70
2023-03-11T17:41:34.965Z,3.80
2023-03-11T17:44:01.554Z,3.70
2023-03-11T17:46:28.312Z,3.70
2023-03-11T17:48:54.955Z,3.60
2023-03-11T17:51:25.557Z,3.50
2023-03-11T17:53:54.625Z,3.70
2023-03-11T17:56:22.241Z,3.80
2023-03-11T17:58:49.874Z,3.60
2023-03-11T18:01:22.805Z,3.60
2023-03-11T18:03:50.495Z,3.60
2023-03-11T18:06:18.918Z,3.60
2023-03-11T18:08:45.706Z,3.60
2023-03-11T18:11:18.260Z,3.70
2023-03-11T18:13:45.824Z,5.70
2023-03-11T18:16:15.170Z,6.20
2023-03-11T18:18:42.235Z,7.10
2023-03-11T18:21:13.155Z,5.50
2023-03-11T18:23:40.568Z,4.80
2023-03-11T18:26:08.726Z,4.30
2023-03-11T18:28:35.984Z,4.00
2023-03-11T18:31:10.419Z,3.90
2023-03-11T18:33:37.832Z,3.70
2023-03-11T18:36:19.273Z,3.70
2023-03-11T18:38:47.518Z,3.60
2023-03-11T18:41:14.251Z,3.60
2023-03-11T18:43:41.044Z,3.50
2023-03-11T18:46:13.302Z,3.50
2023-03-11T18:48:40.055Z,3.70
2023-03-11T18:51:08.376Z,3.50
2023-03-11T18:53:36.423Z,1.60
2023-03-11T18:56:06.596Z,3.50
2023-03-11T18:58:34.204Z,3.70
2023-03-11T19:01:13.991Z,3.60
2023-03-11T19:03:41.822Z,3.60
2023-03-11T19:06:09.949Z,3.50
2023-03-11T19:08:36.607Z,3.40
2023-03-11T19:11:11.421Z,3.30
2023-03-11T19:13:46.696Z,3.40
2023-03-11T19:16:16.539Z,3.30
2023-03-11T19:18:43.232Z,2.00
2023-03-11T19:21:12.098Z,3.50
2023-03-11T19:23:38.811Z,3.50
2023-03-11T19:26:06.012Z,3.50
2023-03-11T19:28:32.607Z,3.30
2023-03-11T19:30:59.614Z,3.30
2023-03-11T19:33:26.636Z,3.40
2023-03-11T19:35:54.973Z,3.40
2023-03-11T19:38:22.547Z,3.50
2023-03-11T19:41:03.104Z,3.60
2023-03-11T19:43:30.395Z,3.30
2023-03-11T19:45:57.212Z,3.40
2023-03-11T19:48:25.623Z,3.40
2023-03-11T19:50:52.820Z,3.30
2023-03-11T19:53:21.331Z,3.40
2023-03-11T19:55:51.200Z,3.50
2023-03-11T19:58:18.305Z,3.50
2023-03-11T20:00:45.296Z,3.50
2023-03-11T20:03:13.245Z,3.50
2023-03-11T20:05:41.928Z,3.60
2023-03-11T20:08:09.730Z,3.50
2023-03-11T20:10:41.578Z,3.60
2023-03-11T20:13:08.487Z,3.60
2023-03-11T20:15:35.678Z,3.50
2023-03-11T20:18:03.604Z,3.60
2023-03-11T20:20:31.108Z,3.50
2023-03-11T20:22:58.443Z,3.60
2023-03-11T20:25:25.579Z,3.50
2023-03-11T20:27:53.098Z,3.50
2023-03-11T20:30:20.424Z,3.60
2023-03-11T20:32:47.965Z,3.60
2023-03-11T20:35:15.294Z,3.60
2023-03-11T20:37:43.259Z,3.60
2023-03-11T20:40:15.796Z,3.70
2023-03-11T20:42:46.606Z,3.70
2023-03-11T20:45:21.435Z,3.80
2023-03-11T20:47:49.442Z,3.60
2023-03-11T20:50:16.593Z,3.80
2023-03-11T20:52:43.213Z,3.60
2023-03-11T20:55:11.179Z,3.80
2023-03-11T20:57:39.172Z,3.70
2023-03-11T21:00:11.290Z,3.70
2023-03-11T21:02:39.822Z,3.70
2023-03-11T21:05:08.318Z,3.70
2023-03-11T21:07:35.533Z,3.70
2023-03-11T21:10:06.260Z,3.80
2023-03-11T21:12:32.909Z,3.80
2023-03-11T21:14:59.724Z,3.70
2023-03-11T21:17:26.456Z,3.70
2023-03-11T21:19:53.101Z,3.70
2023-03-11T21:22:19.711Z,3.70
2023-03-11T21:24:50.467Z,3.70
2023-03-11T21:27:17.128Z,3.70
2023-03-11T21:29:43.884Z,3.60
2023-03-11T21:32:10.528Z,3.50
2023-03-11T21:34:37.201Z,3.50
2023-03-11T21:37:03.962Z,3.40
2023-03-11T21:39:30.732Z,3.40
2023-03-11T21:41:57.493Z,3.40
2023-03-11T21:44:24.162Z,3.50
2023-03-11T21:46:51.013Z,3.50
2023-03-11T21:49:17.804Z,3.50
2023-03-11T21:51:44.465Z,3.50
2023-03-11T21:54:12.430Z,3.50
2023-03-11T21:56:39.533Z,3.40
2023-03-11T21:59:06.519Z,3.40
2023-03-11T22:01:34.141Z,3.40
2023-03-11T22:04:02.181Z,3.40
2023-03-11T22:06:30.894Z,3.40
2023-03-11T22:08:57.672Z,3.40
2023-03-11T22:11:24.378Z,3.40
2023-03-11T22:13:54.128Z,3.40
2023-03-11T22:16:23.042Z,1.60
2023-03-11T22:18:49.915Z,2.10
2023-03-11T22:21:18.200Z,3.40
2023-03-11T22:23:44.930Z,3.40
2023-03-11T22:26:11.728Z,3.40
2023-03-11T22:28:38.486Z,3.40
2023-03-11T22:31:10.402Z,3.40
2023-03-11T22:33:37.315Z,3.60
2023-03-11T22:36:04.809Z,3.40
2023-03-11T22:38:32.593Z,3.40
2023-03-11T22:41:00.383Z,3.40
2023-03-11T22:43:27.431Z,3.50
2023-03-11T22:45:54.138Z,3.30
2023-03-11T22:48:20.792Z,3.40
2023-03-11T22:50:47.793Z,3.40
2023-03-11T22:53:15.464Z,3.30
2023-03-11T22:55:43.536Z,3.30
2023-03-11T22:58:11.239Z,3.30
2023-03-11T23:00:38.666Z,3.40
2023-03-11T23:03:05.751Z,3.30
2023-03-11T23:05:35.919Z,3.20
2023-03-11T23:08:02.585Z,4.60
2023-03-11T23:10:29.382Z,1.90
2023-03-11T23:12:55.980Z,3.70
2023-03-11T23:15:22.700Z,3.60
2023-03-11T23:17:49.355Z,3.60
2023-03-11T23:20:17.207Z,3.50
2023-03-11T23:22:43.970Z,3.50
2023-03-11T23:25:15.764Z,3.50
2023-03-11T23:27:44.021Z,1.90
2023-03-11T23:30:13.231Z,3.30
2023-03-11T23:32:39.925Z,3.30
2023-03-11T23:35:07.044Z,2.10
2023-03-11T23:37:33.711Z,3.20
2023-03-11T23:40:00.324Z,3.20
2023-03-11T23:42:26.965Z,3.40
2023-03-11T23:44:54.253Z,3.10
2023-03-11T23:47:21.045Z,3.10
2023-03-11T23:49:47.662Z,3.20
2023-03-11T23:52:14.470Z,3.10
2023-03-11T23:54:41.118Z,3.30
2023-03-11T23:57:07.830Z,3.20
2023-03-11T23:59:34.459Z,3.10
